sensor_id;sensor_type;location;lat;lon;timestamp;temperature;humidity
50969;DHT22;36982;51.474;7.228;2024-01-25T00:01:47;9.00;70.10
50969;DHT22;36982;51.474;7.228;2024-01-25T00:04:12;9.00;69.60
50969;DHT22;36982;51.474;7.228;2024-01-25T00:06:38;9.00;71.10
50969;DHT22;36982;51.474;7.228;2024-01-25T00:09:09;8.90;70.70
50969;DHT22;36982;51.474;7.228;2024-01-25T00:11:34;8.90;69.50
50969;DHT22;36982;51.474;7.228;2024-01-25T00:14:00;8.90;69.80
50969;DHT22;36982;51.474;7.228;2024-01-25T00:16:27;8.90;67.90
50969;DHT22;36982;51.474;7.228;2024-01-25T00:18:53;8.90;68.10
50969;DHT22;36982;51.474;7.228;2024-01-25T00:21:18;9.00;64.80
50969;DHT22;36982;51.474;7.228;2024-01-25T00:23:44;8.90;64.70
50969;DHT22;36982;51.474;7.228;2024-01-25T00:26:14;8.80;66.60
50969;DHT22;36982;51.474;7.228;2024-01-25T00:28:40;8.80;67.20
50969;DHT22;36982;51.474;7.228;2024-01-25T00:31:05;8.90;66.90
50969;DHT22;36982;51.474;7.228;2024-01-25T00:33:31;8.80;69.30
50969;DHT22;36982;51.474;7.228;2024-01-25T00:35:57;8.80;69.30
50969;DHT22;36982;51.474;7.228;2024-01-25T00:38:23;8.80;70.10
50969;DHT22;36982;51.474;7.228;2024-01-25T00:40:48;8.90;69.40
50969;DHT22;36982;51.474;7.228;2024-01-25T00:43:14;8.80;69.30
50969;DHT22;36982;51.474;7.228;2024-01-25T00:45:40;8.80;71.00
50969;DHT22;36982;51.474;7.228;2024-01-25T00:48:06;8.80;73.60
50969;DHT22;36982;51.474;7.228;2024-01-25T00:50:32;8.70;72.70
50969;DHT22;36982;51.474;7.228;2024-01-25T00:52:58;8.80;72.40
50969;DHT22;36982;51.474;7.228;2024-01-25T00:55:24;8.70;72.80
50969;DHT22;36982;51.474;7.228;2024-01-25T00:57:50;8.70;75.40
50969;DHT22;36982;51.474;7.228;2024-01-25T01:00:17;8.70;74.60
50969;DHT22;36982;51.474;7.228;2024-01-25T01:02:44;8.60;78.00
50969;DHT22;36982;51.474;7.228;2024-01-25T01:05:11;8.60;77.70
50969;DHT22;36982;51.474;7.228;2024-01-25T01:07:37;8.60;80.20
50969;DHT22;36982;51.474;7.228;2024-01-25T01:10:03;8.50;80.80
50969;DHT22;36982;51.474;7.228;2024-01-25T01:12:30;8.60;79.80
50969;DHT22;36982;51.474;7.228;2024-01-25T01:14:55;8.70;75.30
50969;DHT22;36982;51.474;7.228;2024-01-25T01:17:21;8.60;75.70
50969;DHT22;36982;51.474;7.228;2024-01-25T01:19:47;8.60;77.40
50969;DHT22;36982;51.474;7.228;2024-01-25T01:22:12;8.60;78.60
50969;DHT22;36982;51.474;7.228;2024-01-25T01:24:38;8.50;79.70
50969;DHT22;36982;51.474;7.228;2024-01-25T01:27:03;8.50;81.50
50969;DHT22;36982;51.474;7.228;2024-01-25T01:29:29;8.50;80.70
50969;DHT22;36982;51.474;7.228;2024-01-25T01:31:54;8.50;81.70
50969;DHT22;36982;51.474;7.228;2024-01-25T01:34:20;8.50;82.00
50969;DHT22;36982;51.474;7.228;2024-01-25T01:36:46;8.40;83.10
50969;DHT22;36982;51.474;7.228;2024-01-25T01:39:11;8.50;82.10
50969;DHT22;36982;51.474;7.228;2024-01-25T01:41:37;8.60;81.70
50969;DHT22;36982;51.474;7.228;2024-01-25T01:44:02;8.60;78.40
50969;DHT22;36982;51.474;7.228;2024-01-25T01:46:35;8.60;78.20
50969;DHT22;36982;51.474;7.228;2024-01-25T01:49:03;8.70;78.30
50969;DHT22;36982;51.474;7.228;2024-01-25T01:51:30;8.60;79.20
50969;DHT22;36982;51.474;7.228;2024-01-25T01:54:06;8.60;80.70
50969;DHT22;36982;51.474;7.228;2024-01-25T01:56:34;8.50;81.20
50969;DHT22;36982;51.474;7.228;2024-01-25T01:59:04;8.60;79.90
50969;DHT22;36982;51.474;7.228;2024-01-25T02:01:31;8.50;81.50
50969;DHT22;36982;51.474;7.228;2024-01-25T02:03:57;8.50;81.50
50969;DHT22;36982;51.474;7.228;2024-01-25T02:06:26;8.50;81.10
50969;DHT22;36982;51.474;7.228;2024-01-25T02:08:52;8.60;80.60
50969;DHT22;36982;51.474;7.228;2024-01-25T02:11:27;8.50;82.30
50969;DHT22;36982;51.474;7.228;2024-01-25T02:13:52;8.50;80.20
50969;DHT22;36982;51.474;7.228;2024-01-25T02:16:18;8.50;80.10
50969;DHT22;36982;51.474;7.228;2024-01-25T02:18:45;8.50;82.20
50969;DHT22;36982;51.474;7.228;2024-01-25T02:21:12;8.50;82.30
50969;DHT22;36982;51.474;7.228;2024-01-25T02:23:37;8.50;78.90
50969;DHT22;36982;51.474;7.228;2024-01-25T02:26:03;8.50;81.30
50969;DHT22;36982;51.474;7.228;2024-01-25T02:28:34;8.50;79.30
50969;DHT22;36982;51.474;7.228;2024-01-25T02:31:01;8.50;77.70
50969;DHT22;36982;51.474;7.228;2024-01-25T02:33:27;8.50;76.00
50969;DHT22;36982;51.474;7.228;2024-01-25T02:35:52;8.50;78.30
50969;DHT22;36982;51.474;7.228;2024-01-25T02:38:18;8.50;77.60
50969;DHT22;36982;51.474;7.228;2024-01-25T02:40:44;8.40;79.10
50969;DHT22;36982;51.474;7.228;2024-01-25T02:43:09;8.40;79.30
50969;DHT22;36982;51.474;7.228;2024-01-25T02:45:35;8.30;80.70
50969;DHT22;36982;51.474;7.228;2024-01-25T02:48:00;8.30;82.00
50969;DHT22;36982;51.474;7.228;2024-01-25T02:50:27;8.30;82.90
50969;DHT22;36982;51.474;7.228;2024-01-25T02:52:53;8.10;83.10
50969;DHT22;36982;51.474;7.228;2024-01-25T02:55:19;8.00;85.60
50969;DHT22;36982;51.474;7.228;2024-01-25T02:58:10;7.90;88.20
50969;DHT22;36982;51.474;7.228;2024-01-25T03:00:35;7.80;89.60
50969;DHT22;36982;51.474;7.228;2024-01-25T03:03:01;7.80;91.10
50969;DHT22;36982;51.474;7.228;2024-01-25T03:05:26;7.70;91.70
50969;DHT22;36982;51.474;7.228;2024-01-25T03:07:52;7.70;91.70
50969;DHT22;36982;51.474;7.228;2024-01-25T03:10:17;7.60;92.50
50969;DHT22;36982;51.474;7.228;2024-01-25T03:12:46;7.60;92.40
50969;DHT22;36982;51.474;7.228;2024-01-25T03:15:12;7.60;92.60
50969;DHT22;36982;51.474;7.228;2024-01-25T03:17:37;7.60;93.20
50969;DHT22;36982;51.474;7.228;2024-01-25T03:20:03;7.60;93.40
50969;DHT22;36982;51.474;7.228;2024-01-25T03:22:29;7.70;92.50
50969;DHT22;36982;51.474;7.228;2024-01-25T03:24:55;7.60;92.60
50969;DHT22;36982;51.474;7.228;2024-01-25T03:27:20;7.60;92.30
50969;DHT22;36982;51.474;7.228;2024-01-25T03:29:46;7.60;92.40
50969;DHT22;36982;51.474;7.228;2024-01-25T03:32:11;7.60;92.20
50969;DHT22;36982;51.474;7.228;2024-01-25T03:34:37;7.60;92.70
50969;DHT22;36982;51.474;7.228;2024-01-25T03:37:03;7.50;93.30
50969;DHT22;36982;51.474;7.228;2024-01-25T03:39:32;7.50;93.50
50969;DHT22;36982;51.474;7.228;2024-01-25T03:41:58;7.40;93.40
50969;DHT22;36982;51.474;7.228;2024-01-25T03:44:23;7.30;94.60
50969;DHT22;36982;51.474;7.228;2024-01-25T03:46:49;7.20;95.20
50969;DHT22;36982;51.474;7.228;2024-01-25T03:49:15;7.20;95.50
50969;DHT22;36982;51.474;7.228;2024-01-25T03:51:40;7.20;96.20
50969;DHT22;36982;51.474;7.228;2024-01-25T03:54:06;7.20;96.20
50969;DHT22;36982;51.474;7.228;2024-01-25T03:56:32;7.10;96.90
50969;DHT22;36982;51.474;7.228;2024-01-25T03:58:57;7.00;97.70
50969;DHT22;36982;51.474;7.228;2024-01-25T04:01:23;7.00;98.00
50969;DHT22;36982;51.474;7.228;2024-01-25T04:03:48;7.00;98.40
50969;DHT22;36982;51.474;7.228;2024-01-25T04:06:14;6.90;98.20
50969;DHT22;36982;51.474;7.228;2024-01-25T04:08:39;6.80;99.50
50969;DHT22;36982;51.474;7.228;2024-01-25T04:11:05;6.80;99.80
50969;DHT22;36982;51.474;7.228;2024-01-25T04:13:31;6.90;99.40
50969;DHT22;36982;51.474;7.228;2024-01-25T04:16:05;6.80;98.90
50969;DHT22;36982;51.474;7.228;2024-01-25T04:18:30;6.80;98.90
50969;DHT22;36982;51.474;7.228;2024-01-25T04:20:56;6.70;99.80
50969;DHT22;36982;51.474;7.228;2024-01-25T04:23:30;6.70;99.90
50969;DHT22;36982;51.474;7.228;2024-01-25T04:25:55;6.70;99.90
50969;DHT22;36982;51.474;7.228;2024-01-25T04:28:21;6.70;99.90
50969;DHT22;36982;51.474;7.228;2024-01-25T04:30:46;6.70;99.90
50969;DHT22;36982;51.474;7.228;2024-01-25T04:33:12;6.60;99.90
50969;DHT22;36982;51.474;7.228;2024-01-25T04:35:37;6.70;99.90
50969;DHT22;36982;51.474;7.228;2024-01-25T04:38:03;6.60;99.90
50969;DHT22;36982;51.474;7.228;2024-01-25T04:40:29;6.70;99.90
50969;DHT22;36982;51.474;7.228;2024-01-25T04:42:54;6.60;99.90
50969;DHT22;36982;51.474;7.228;2024-01-25T04:45:20;6.50;99.90
50969;DHT22;36982;51.474;7.228;2024-01-25T04:47:45;6.50;99.90
50969;DHT22;36982;51.474;7.228;2024-01-25T04:50:11;6.50;99.90
50969;DHT22;36982;51.474;7.228;2024-01-25T04:52:36;6.50;99.90
50969;DHT22;36982;51.474;7.228;2024-01-25T04:55:02;6.50;99.90
50969;DHT22;36982;51.474;7.228;2024-01-25T04:57:28;6.50;99.90
50969;DHT22;36982;51.474;7.228;2024-01-25T04:59:54;6.40;99.90
50969;DHT22;36982;51.474;7.228;2024-01-25T05:02:19;6.30;99.90
50969;DHT22;36982;51.474;7.228;2024-01-25T05:04:45;6.20;99.90
50969;DHT22;36982;51.474;7.228;2024-01-25T05:07:25;6.20;99.90
50969;DHT22;36982;51.474;7.228;2024-01-25T05:09:50;6.20;99.90
50969;DHT22;36982;51.474;7.228;2024-01-25T05:12:16;6.20;99.90
50969;DHT22;36982;51.474;7.228;2024-01-25T05:14:41;6.20;99.90
50969;DHT22;36982;51.474;7.228;2024-01-25T05:17:07;6.20;99.90
50969;DHT22;36982;51.474;7.228;2024-01-25T05:19:33;6.20;99.90
50969;DHT22;36982;51.474;7.228;2024-01-25T05:21:58;6.10;99.90
50969;DHT22;36982;51.474;7.228;2024-01-25T05:24:24;6.10;99.90
50969;DHT22;36982;51.474;7.228;2024-01-25T05:26:49;6.10;99.90
50969;DHT22;36982;51.474;7.228;2024-01-25T05:29:15;6.20;99.90
50969;DHT22;36982;51.474;7.228;2024-01-25T05:31:41;6.10;99.90
50969;DHT22;36982;51.474;7.228;2024-01-25T05:34:07;6.00;99.90
50969;DHT22;36982;51.474;7.228;2024-01-25T05:36:33;6.00;99.90
50969;DHT22;36982;51.474;7.228;2024-01-25T05:38:58;6.00;99.90
50969;DHT22;36982;51.474;7.228;2024-01-25T05:41:24;5.90;99.90
50969;DHT22;36982;51.474;7.228;2024-01-25T05:43:49;5.90;99.90
50969;DHT22;36982;51.474;7.228;2024-01-25T05:46:15;5.90;99.90
50969;DHT22;36982;51.474;7.228;2024-01-25T05:48:40;5.90;99.90
50969;DHT22;36982;51.474;7.228;2024-01-25T05:51:06;5.80;99.90
50969;DHT22;36982;51.474;7.228;2024-01-25T05:53:32;5.80;99.90
50969;DHT22;36982;51.474;7.228;2024-01-25T05:55:57;5.80;99.90
50969;DHT22;36982;51.474;7.228;2024-01-25T05:58:24;5.90;99.90
50969;DHT22;36982;51.474;7.228;2024-01-25T06:00:56;6.00;99.90
50969;DHT22;36982;51.474;7.228;2024-01-25T06:03:22;5.80;99.90
50969;DHT22;36982;51.474;7.228;2024-01-25T06:05:47;5.80;99.90
50969;DHT22;36982;51.474;7.228;2024-01-25T06:08:16;5.70;99.90
50969;DHT22;36982;51.474;7.228;2024-01-25T06:10:41;5.80;99.90
50969;DHT22;36982;51.474;7.228;2024-01-25T06:13:08;5.80;99.90
50969;DHT22;36982;51.474;7.228;2024-01-25T06:15:34;5.70;99.90
50969;DHT22;36982;51.474;7.228;2024-01-25T06:17:59;5.80;99.90
50969;DHT22;36982;51.474;7.228;2024-01-25T06:20:25;5.70;99.90
50969;DHT22;36982;51.474;7.228;2024-01-25T06:22:50;5.70;99.90
50969;DHT22;36982;51.474;7.228;2024-01-25T06:25:21;5.60;99.90
50969;DHT22;36982;51.474;7.228;2024-01-25T06:27:47;5.60;99.90
50969;DHT22;36982;51.474;7.228;2024-01-25T06:30:19;5.70;99.90
50969;DHT22;36982;51.474;7.228;2024-01-25T06:32:45;5.50;99.90
50969;DHT22;36982;51.474;7.228;2024-01-25T06:35:11;5.60;99.90
50969;DHT22;36982;51.474;7.228;2024-01-25T06:37:36;5.60;99.90
50969;DHT22;36982;51.474;7.228;2024-01-25T06:40:05;5.50;99.90
50969;DHT22;36982;51.474;7.228;2024-01-25T06:42:30;5.50;99.90
50969;DHT22;36982;51.474;7.228;2024-01-25T06:44:56;5.60;99.90
50969;DHT22;36982;51.474;7.228;2024-01-25T06:47:22;5.60;99.90
50969;DHT22;36982;51.474;7.228;2024-01-25T06:49:47;5.50;99.90
50969;DHT22;36982;51.474;7.228;2024-01-25T06:52:17;5.50;99.90
50969;DHT22;36982;51.474;7.228;2024-01-25T06:54:43;5.50;99.90
50969;DHT22;36982;51.474;7.228;2024-01-25T06:57:08;5.50;99.90
50969;DHT22;36982;51.474;7.228;2024-01-25T06:59:34;5.60;99.90
50969;DHT22;36982;51.474;7.228;2024-01-25T07:01:59;5.50;99.90
50969;DHT22;36982;51.474;7.228;2024-01-25T07:04:25;5.40;99.90
50969;DHT22;36982;51.474;7.228;2024-01-25T07:06:54;5.50;99.90
50969;DHT22;36982;51.474;7.228;2024-01-25T07:09:20;5.40;99.90
50969;DHT22;36982;51.474;7.228;2024-01-25T07:11:45;5.40;99.90
50969;DHT22;36982;51.474;7.228;2024-01-25T07:14:11;5.40;99.90
50969;DHT22;36982;51.474;7.228;2024-01-25T07:16:37;5.40;99.90
50969;DHT22;36982;51.474;7.228;2024-01-25T07:19:03;5.40;99.90
50969;DHT22;36982;51.474;7.228;2024-01-25T07:21:29;5.30;99.90
50969;DHT22;36982;51.474;7.228;2024-01-25T07:24:02;5.30;99.90
50969;DHT22;36982;51.474;7.228;2024-01-25T07:26:30;5.30;99.90
50969;DHT22;36982;51.474;7.228;2024-01-25T07:28:55;5.30;99.90
50969;DHT22;36982;51.474;7.228;2024-01-25T07:31:27;5.30;99.90
50969;DHT22;36982;51.474;7.228;2024-01-25T07:33:53;5.20;99.90
50969;DHT22;36982;51.474;7.228;2024-01-25T07:36:19;5.30;99.90
50969;DHT22;36982;51.474;7.228;2024-01-25T07:38:45;5.20;99.90
50969;DHT22;36982;51.474;7.228;2024-01-25T07:41:12;5.20;99.90
50969;DHT22;36982;51.474;7.228;2024-01-25T07:43:38;5.20;99.90
50969;DHT22;36982;51.474;7.228;2024-01-25T07:46:04;5.20;99.90
50969;DHT22;36982;51.474;7.228;2024-01-25T07:48:29;5.20;99.90
50969;DHT22;36982;51.474;7.228;2024-01-25T07:50:57;5.30;99.90
50969;DHT22;36982;51.474;7.228;2024-01-25T07:53:22;5.30;99.90
50969;DHT22;36982;51.474;7.228;2024-01-25T07:55:48;5.30;99.90
50969;DHT22;36982;51.474;7.228;2024-01-25T07:58:17;5.40;99.90
50969;DHT22;36982;51.474;7.228;2024-01-25T08:00:42;5.50;99.90
50969;DHT22;36982;51.474;7.228;2024-01-25T08:03:08;5.50;99.90
50969;DHT22;36982;51.474;7.228;2024-01-25T08:05:34;5.50;99.90
50969;DHT22;36982;51.474;7.228;2024-01-25T08:08:00;5.50;99.90
50969;DHT22;36982;51.474;7.228;2024-01-25T08:10:29;5.50;99.90
50969;DHT22;36982;51.474;7.228;2024-01-25T08:12:55;5.50;99.90
50969;DHT22;36982;51.474;7.228;2024-01-25T08:15:20;5.50;99.90
50969;DHT22;36982;51.474;7.228;2024-01-25T08:17:46;5.60;99.90
50969;DHT22;36982;51.474;7.228;2024-01-25T08:20:11;5.70;99.90
50969;DHT22;36982;51.474;7.228;2024-01-25T08:22:40;5.70;99.90
50969;DHT22;36982;51.474;7.228;2024-01-25T08:25:06;5.70;99.90
50969;DHT22;36982;51.474;7.228;2024-01-25T08:27:39;5.80;99.90
50969;DHT22;36982;51.474;7.228;2024-01-25T08:30:05;5.80;99.90
50969;DHT22;36982;51.474;7.228;2024-01-25T08:32:32;5.80;99.90
50969;DHT22;36982;51.474;7.228;2024-01-25T08:34:58;5.90;99.90
50969;DHT22;36982;51.474;7.228;2024-01-25T08:37:23;5.90;99.90
50969;DHT22;36982;51.474;7.228;2024-01-25T08:39:49;5.90;99.90
50969;DHT22;36982;51.474;7.228;2024-01-25T08:42:17;5.90;99.90
50969;DHT22;36982;51.474;7.228;2024-01-25T08:44:42;6.00;99.90
50969;DHT22;36982;51.474;7.228;2024-01-25T08:47:17;6.00;99.90
50969;DHT22;36982;51.474;7.228;2024-01-25T08:49:43;6.00;99.90
50969;DHT22;36982;51.474;7.228;2024-01-25T08:52:08;5.90;99.90
50969;DHT22;36982;51.474;7.228;2024-01-25T08:54:34;5.90;99.90
50969;DHT22;36982;51.474;7.228;2024-01-25T08:57:02;5.90;99.90
50969;DHT22;36982;51.474;7.228;2024-01-25T08:59:28;5.90;99.90
50969;DHT22;36982;51.474;7.228;2024-01-25T09:02:04;5.90;99.90
50969;DHT22;36982;51.474;7.228;2024-01-25T09:04:32;6.00;99.90
50969;DHT22;36982;51.474;7.228;2024-01-25T09:06:58;6.00;99.90
50969;DHT22;36982;51.474;7.228;2024-01-25T09:09:34;6.10;99.90
50969;DHT22;36982;51.474;7.228;2024-01-25T09:12:00;6.10;99.90
50969;DHT22;36982;51.474;7.228;2024-01-25T09:14:26;6.10;99.90
50969;DHT22;36982;51.474;7.228;2024-01-25T09:16:51;6.10;99.90
50969;DHT22;36982;51.474;7.228;2024-01-25T09:19:21;6.20;99.90
50969;DHT22;36982;51.474;7.228;2024-01-25T09:21:47;6.20;99.90
50969;DHT22;36982;51.474;7.228;2024-01-25T09:24:12;6.30;99.90
50969;DHT22;36982;51.474;7.228;2024-01-25T09:26:38;6.40;99.90
50969;DHT22;36982;51.474;7.228;2024-01-25T09:29:03;6.40;99.90
50969;DHT22;36982;51.474;7.228;2024-01-25T09:31:30;6.40;99.90
50969;DHT22;36982;51.474;7.228;2024-01-25T09:33:55;6.50;99.90
50969;DHT22;36982;51.474;7.228;2024-01-25T09:36:21;6.50;99.90
50969;DHT22;36982;51.474;7.228;2024-01-25T09:38:46;6.50;99.90
50969;DHT22;36982;51.474;7.228;2024-01-25T09:41:12;6.50;99.90
50969;DHT22;36982;51.474;7.228;2024-01-25T09:43:37;6.40;99.90
50969;DHT22;36982;51.474;7.228;2024-01-25T09:46:05;6.50;99.90
50969;DHT22;36982;51.474;7.228;2024-01-25T09:48:35;6.50;99.90
50969;DHT22;36982;51.474;7.228;2024-01-25T09:51:01;6.60;99.90
50969;DHT22;36982;51.474;7.228;2024-01-25T09:53:28;6.60;99.90
50969;DHT22;36982;51.474;7.228;2024-01-25T09:56:05;6.70;99.90
50969;DHT22;36982;51.474;7.228;2024-01-25T09:58:38;6.90;99.90
50969;DHT22;36982;51.474;7.228;2024-01-25T10:01:10;6.90;99.90
50969;DHT22;36982;51.474;7.228;2024-01-25T10:03:36;6.90;99.90
50969;DHT22;36982;51.474;7.228;2024-01-25T10:06:02;7.00;99.90
50969;DHT22;36982;51.474;7.228;2024-01-25T10:08:29;6.90;99.90
50969;DHT22;36982;51.474;7.228;2024-01-25T10:10:55;6.90;99.90
50969;DHT22;36982;51.474;7.228;2024-01-25T10:13:21;6.90;99.90
50969;DHT22;36982;51.474;7.228;2024-01-25T10:15:47;7.00;99.90
50969;DHT22;36982;51.474;7.228;2024-01-25T10:18:14;7.00;99.90
50969;DHT22;36982;51.474;7.228;2024-01-25T10:20:41;7.10;99.90
50969;DHT22;36982;51.474;7.228;2024-01-25T10:23:07;7.20;99.90
50969;DHT22;36982;51.474;7.228;2024-01-25T10:25:36;7.30;99.90
50969;DHT22;36982;51.474;7.228;2024-01-25T10:28:06;7.40;99.90
50969;DHT22;36982;51.474;7.228;2024-01-25T10:30:33;7.50;99.90
50969;DHT22;36982;51.474;7.228;2024-01-25T10:32:59;7.60;99.90
50969;DHT22;36982;51.474;7.228;2024-01-25T10:35:52;7.50;99.90
50969;DHT22;36982;51.474;7.228;2024-01-25T10:38:21;7.50;99.90
50969;DHT22;36982;51.474;7.228;2024-01-25T10:40:47;7.40;99.90
50969;DHT22;36982;51.474;7.228;2024-01-25T10:43:17;7.30;99.90
50969;DHT22;36982;51.474;7.228;2024-01-25T10:45:42;7.30;99.90
50969;DHT22;36982;51.474;7.228;2024-01-25T10:48:08;7.40;99.90
50969;DHT22;36982;51.474;7.228;2024-01-25T10:50:34;7.40;99.90
50969;DHT22;36982;51.474;7.228;2024-01-25T10:53:00;7.40;99.90
50969;DHT22;36982;51.474;7.228;2024-01-25T10:55:27;7.40;99.90
50969;DHT22;36982;51.474;7.228;2024-01-25T10:57:53;7.50;99.90
50969;DHT22;36982;51.474;7.228;2024-01-25T11:00:19;7.60;99.90
50969;DHT22;36982;51.474;7.228;2024-01-25T11:02:46;7.80;99.90
50969;DHT22;36982;51.474;7.228;2024-01-25T11:05:16;7.90;99.90
50969;DHT22;36982;51.474;7.228;2024-01-25T11:07:50;7.90;99.90
50969;DHT22;36982;51.474;7.228;2024-01-25T11:10:19;7.90;99.90
50969;DHT22;36982;51.474;7.228;2024-01-25T11:12:57;8.10;99.90
50969;DHT22;36982;51.474;7.228;2024-01-25T11:15:33;8.20;99.90
50969;DHT22;36982;51.474;7.228;2024-01-25T11:17:58;8.30;99.90
50969;DHT22;36982;51.474;7.228;2024-01-25T11:20:28;8.30;99.90
50969;DHT22;36982;51.474;7.228;2024-01-25T11:22:57;8.40;99.90
50969;DHT22;36982;51.474;7.228;2024-01-25T11:25:30;8.30;99.50
50969;DHT22;36982;51.474;7.228;2024-01-25T11:27:56;8.30;99.90
50969;DHT22;36982;51.474;7.228;2024-01-25T11:30:22;8.30;99.90
50969;DHT22;36982;51.474;7.228;2024-01-25T11:32:47;8.40;99.90
50969;DHT22;36982;51.474;7.228;2024-01-25T11:35:14;8.40;99.20
50969;DHT22;36982;51.474;7.228;2024-01-25T11:37:49;8.30;99.30
50969;DHT22;36982;51.474;7.228;2024-01-25T11:40:16;8.30;99.40
50969;DHT22;36982;51.474;7.228;2024-01-25T11:42:44;8.30;99.30
50969;DHT22;36982;51.474;7.228;2024-01-25T11:45:11;8.20;99.30
50969;DHT22;36982;51.474;7.228;2024-01-25T11:47:37;8.20;99.70
50969;DHT22;36982;51.474;7.228;2024-01-25T11:50:06;8.30;99.80
50969;DHT22;36982;51.474;7.228;2024-01-25T11:52:35;8.50;98.60
50969;DHT22;36982;51.474;7.228;2024-01-25T11:55:05;8.50;97.50
50969;DHT22;36982;51.474;7.228;2024-01-25T11:57:35;8.50;97.20
50969;DHT22;36982;51.474;7.228;2024-01-25T12:00:03;8.60;97.10
50969;DHT22;36982;51.474;7.228;2024-01-25T12:02:30;8.70;96.00
50969;DHT22;36982;51.474;7.228;2024-01-25T12:04:57;8.80;95.20
50969;DHT22;36982;51.474;7.228;2024-01-25T12:07:23;8.80;94.20
50969;DHT22;36982;51.474;7.228;2024-01-25T12:10:10;8.90;93.80
50969;DHT22;36982;51.474;7.228;2024-01-25T12:12:36;8.90;93.00
50969;DHT22;36982;51.474;7.228;2024-01-25T12:15:05;8.90;93.60
50969;DHT22;36982;51.474;7.228;2024-01-25T12:20:23;8.90;93.70
50969;DHT22;36982;51.474;7.228;2024-01-25T12:22:50;9.00;93.60
50969;DHT22;36982;51.474;7.228;2024-01-25T12:25:15;9.10;93.10
50969;DHT22;36982;51.474;7.228;2024-01-25T12:27:41;9.00;93.30
50969;DHT22;36982;51.474;7.228;2024-01-25T12:30:07;9.00;92.10
50969;DHT22;36982;51.474;7.228;2024-01-25T12:32:35;9.00;93.00
50969;DHT22;36982;51.474;7.228;2024-01-25T12:35:01;9.10;82.00
50969;DHT22;36982;51.474;7.228;2024-01-25T12:37:27;9.20;54.10
50969;DHT22;36982;51.474;7.228;2024-01-25T12:39:53;9.20;52.40
50969;DHT22;36982;51.474;7.228;2024-01-25T12:42:20;9.10;54.40
50969;DHT22;36982;51.474;7.228;2024-01-25T12:44:52;9.20;53.10
50969;DHT22;36982;51.474;7.228;2024-01-25T12:47:19;9.20;52.00
50969;DHT22;36982;51.474;7.228;2024-01-25T12:49:45;9.10;54.70
50969;DHT22;36982;51.474;7.228;2024-01-25T12:52:14;9.00;56.60
50969;DHT22;36982;51.474;7.228;2024-01-25T12:54:41;8.90;57.00
50969;DHT22;36982;51.474;7.228;2024-01-25T12:57:07;8.90;56.60
50969;DHT22;36982;51.474;7.228;2024-01-25T12:59:36;8.90;54.30
50969;DHT22;36982;51.474;7.228;2024-01-25T13:02:02;8.80;55.20
50969;DHT22;36982;51.474;7.228;2024-01-25T13:04:28;8.90;60.00
50969;DHT22;36982;51.474;7.228;2024-01-25T13:06:55;9.00;55.00
50969;DHT22;36982;51.474;7.228;2024-01-25T13:09:24;8.90;55.30
50969;DHT22;36982;51.474;7.228;2024-01-25T13:11:49;8.90;58.40
50969;DHT22;36982;51.474;7.228;2024-01-25T13:14:17;8.90;55.00
50969;DHT22;36982;51.474;7.228;2024-01-25T13:16:43;8.80;62.20
50969;DHT22;36982;51.474;7.228;2024-01-25T13:19:08;8.90;61.80
50969;DHT22;36982;51.474;7.228;2024-01-25T13:21:34;9.00;63.20
50969;DHT22;36982;51.474;7.228;2024-01-25T13:24:00;9.10;58.70
50969;DHT22;36982;51.474;7.228;2024-01-25T13:26:30;9.20;55.40
50969;DHT22;36982;51.474;7.228;2024-01-25T13:28:56;9.10;57.20
50969;DHT22;36982;51.474;7.228;2024-01-25T13:31:21;9.00;62.40
50969;DHT22;36982;51.474;7.228;2024-01-25T13:33:47;9.10;59.00
50969;DHT22;36982;51.474;7.228;2024-01-25T13:36:14;9.10;59.60
50969;DHT22;36982;51.474;7.228;2024-01-25T13:38:40;9.10;56.30
50969;DHT22;36982;51.474;7.228;2024-01-25T13:41:06;9.00;58.70
50969;DHT22;36982;51.474;7.228;2024-01-25T13:43:31;9.10;59.30
50969;DHT22;36982;51.474;7.228;2024-01-25T13:45:57;9.10;54.10
50969;DHT22;36982;51.474;7.228;2024-01-25T13:48:23;9.00;58.60
50969;DHT22;36982;51.474;7.228;2024-01-25T13:50:49;9.00;57.20
50969;DHT22;36982;51.474;7.228;2024-01-25T13:53:14;9.00;57.50
50969;DHT22;36982;51.474;7.228;2024-01-25T13:55:40;9.10;59.70
50969;DHT22;36982;51.474;7.228;2024-01-25T13:58:05;9.30;53.60
50969;DHT22;36982;51.474;7.228;2024-01-25T14:00:31;9.20;51.70
50969;DHT22;36982;51.474;7.228;2024-01-25T14:02:56;9.30;44.90
50969;DHT22;36982;51.474;7.228;2024-01-25T14:05:22;9.30;48.70
50969;DHT22;36982;51.474;7.228;2024-01-25T14:07:48;9.40;50.40
50969;DHT22;36982;51.474;7.228;2024-01-25T14:10:13;9.40;45.00
50969;DHT22;36982;51.474;7.228;2024-01-25T14:12:39;9.40;40.30
50969;DHT22;36982;51.474;7.228;2024-01-25T14:15:05;9.40;42.30
50969;DHT22;36982;51.474;7.228;2024-01-25T14:17:30;9.40;46.00
50969;DHT22;36982;51.474;7.228;2024-01-25T14:19:56;9.30;40.50
50969;DHT22;36982;51.474;7.228;2024-01-25T14:22:22;9.20;39.60
50969;DHT22;36982;51.474;7.228;2024-01-25T14:24:48;9.20;42.70
50969;DHT22;36982;51.474;7.228;2024-01-25T14:27:14;9.20;48.80
50969;DHT22;36982;51.474;7.228;2024-01-25T14:29:40;9.20;51.70
50969;DHT22;36982;51.474;7.228;2024-01-25T14:32:05;9.20;48.30
50969;DHT22;36982;51.474;7.228;2024-01-25T14:34:31;9.30;52.30
50969;DHT22;36982;51.474;7.228;2024-01-25T14:37:02;9.20;54.60
50969;DHT22;36982;51.474;7.228;2024-01-25T14:39:28;9.30;55.40
50969;DHT22;36982;51.474;7.228;2024-01-25T14:41:53;9.20;53.50
50969;DHT22;36982;51.474;7.228;2024-01-25T14:44:19;9.20;51.60
50969;DHT22;36982;51.474;7.228;2024-01-25T14:46:45;9.20;58.90
50969;DHT22;36982;51.474;7.228;2024-01-25T14:49:11;9.00;57.00
50969;DHT22;36982;51.474;7.228;2024-01-25T14:51:37;8.90;58.40
50969;DHT22;36982;51.474;7.228;2024-01-25T14:54:02;8.90;62.80
50969;DHT22;36982;51.474;7.228;2024-01-25T14:56:28;9.00;64.70
50969;DHT22;36982;51.474;7.228;2024-01-25T14:58:54;9.00;61.50
50969;DHT22;36982;51.474;7.228;2024-01-25T15:01:20;9.00;61.40
50969;DHT22;36982;51.474;7.228;2024-01-25T15:04:17;9.00;61.90
50969;DHT22;36982;51.474;7.228;2024-01-25T15:06:42;9.00;62.00
50969;DHT22;36982;51.474;7.228;2024-01-25T15:09:09;9.10;58.70
50969;DHT22;36982;51.474;7.228;2024-01-25T15:11:35;9.10;59.60
50969;DHT22;36982;51.474;7.228;2024-01-25T15:14:08;9.10;60.30
50969;DHT22;36982;51.474;7.228;2024-01-25T15:16:34;9.10;59.20
50969;DHT22;36982;51.474;7.228;2024-01-25T15:19:02;9.00;61.90
50969;DHT22;36982;51.474;7.228;2024-01-25T15:21:28;9.00;64.90
50969;DHT22;36982;51.474;7.228;2024-01-25T15:23:53;9.00;58.80
50969;DHT22;36982;51.474;7.228;2024-01-25T15:26:48;8.90;64.30
50969;DHT22;36982;51.474;7.228;2024-01-25T15:29:14;8.90;63.40
50969;DHT22;36982;51.474;7.228;2024-01-25T15:31:39;8.90;67.50
50969;DHT22;36982;51.474;7.228;2024-01-25T15:34:06;8.90;65.10
50969;DHT22;36982;51.474;7.228;2024-01-25T15:36:34;8.90;67.00
50969;DHT22;36982;51.474;7.228;2024-01-25T15:39:01;8.90;66.50
50969;DHT22;36982;51.474;7.228;2024-01-25T15:41:29;8.90;66.60
50969;DHT22;36982;51.474;7.228;2024-01-25T15:43:56;8.90;65.00
50969;DHT22;36982;51.474;7.228;2024-01-25T15:46:21;8.90;67.50